sensor_id;sensor_type;location;lat;lon;timestamp;P1;durP1;ratioP1;P2;durP2;ratioP2
14320;SDS011;7244;47.364;8.464;2022-08-03T00:02:02;1;;;1;;
14320;SDS011;7244;47.364;8.464;2022-08-03T00:17:02;1;;;1;;
14320;SDS011;7244;47.364;8.464;2022-08-03T00:32:02;1;;;1;;
14320;SDS011;7244;47.364;8.464;2022-08-03T00:47:02;2;;;1;;
14320;SDS011;7244;47.364;8.464;2022-08-03T01:02:02;1;;;1;;
14320;SDS011;7244;47.364;8.464;2022-08-03T01:17:04;1;;;1;;
14320;SDS011;7244;47.364;8.464;2022-08-03T01:32:04;2;;;2;;
14320;SDS011;7244;47.364;8.464;2022-08-03T01:33:03;2;;;2;;
14320;SDS011;7244;47.364;8.464;2022-08-03T01:34:02;2;;;2;;
14320;SDS011;7244;47.364;8.464;2022-08-03T01:35:03;2;;;2;;
14320;SDS011;7244;47.364;8.464;2022-08-03T01:36:03;2;;;2;;
14320;SDS011;7244;47.364;8.464;2022-08-03T01:37:02;2;;;2;;
14320;SDS011;7244;47.364;8.464;2022-08-03T01:38:03;2;;;2;;
14320;SDS011;7244;47.364;8.464;2022-08-03T01:39:03;2;;;2;;
14320;SDS011;7244;47.364;8.464;2022-08-03T01:40:02;2;;;2;;
14320;SDS011;7244;47.364;8.464;2022-08-03T01:41:02;2;;;2;;
14320;SDS011;7244;47.364;8.464;2022-08-03T01:42:03;2;;;2;;
14320;SDS011;7244;47.364;8.464;2022-08-03T01:43:02;2;;;2;;
14320;SDS011;7244;47.364;8.464;2022-08-03T01:44:02;2;;;1;;
14320;SDS011;7244;47.364;8.464;2022-08-03T01:45:02;2;;;1;;
14320;SDS011;7244;47.364;8.464;2022-08-03T01:46:02;2;;;1;;
14320;SDS011;7244;47.364;8.464;2022-08-03T02:02:02;3;;;2;;
14320;SDS011;7244;47.364;8.464;2022-08-03T02:17:02;3;;;2;;
14320;SDS011;7244;47.364;8.464;2022-08-03T02:32:02;3;;;2;;
14320;SDS011;7244;47.364;8.464;2022-08-03T02:47:02;4;;;2;;
14320;SDS011;7244;47.364;8.464;2022-08-03T03:02:02;4;;;2;;
14320;SDS011;7244;47.364;8.464;2022-08-03T03:17:02;4;;;2;;
14320;SDS011;7244;47.364;8.464;2022-08-03T03:32:01;3;;;2;;
14320;SDS011;7244;47.364;8.464;2022-08-03T03:47:02;3;;;2;;
14320;SDS011;7244;47.364;8.464;2022-08-03T04:02:02;2;;;2;;
14320;SDS011;7244;47.364;8.464;2022-08-03T04:17:03;3;;;2;;
14320;SDS011;7244;47.364;8.464;2022-08-03T04:32:02;4;;;2;;
14320;SDS011;7244;47.364;8.464;2022-08-03T04:47:02;4;;;2;;
14320;SDS011;7244;47.364;8.464;2022-08-03T05:02:01;4;;;2;;
14320;SDS011;7244;47.364;8.464;2022-08-03T05:17:02;3;;;2;;
14320;SDS011;7244;47.364;8.464;2022-08-03T05:32:03;3;;;2;;
14320;SDS011;7244;47.364;8.464;2022-08-03T05:47:02;5;;;2;;
14320;SDS011;7244;47.364;8.464;2022-08-03T06:02:02;3;;;2;;
14320;SDS011;7244;47.364;8.464;2022-08-03T06:17:02;3;;;2;;
14320;SDS011;7244;47.364;8.464;2022-08-03T06:32:01;4;;;2;;
14320;SDS011;7244;47.364;8.464;2022-08-03T06:47:02;5;;;2;;
14320;SDS011;7244;47.364;8.464;2022-08-03T07:02:02;4;;;2;;
14320;SDS011;7244;47.364;8.464;2022-08-03T07:17:02;4;;;3;;
14320;SDS011;7244;47.364;8.464;2022-08-03T07:32:02;4;;;2;;
14320;SDS011;7244;47.364;8.464;2022-08-03T07:47:02;7;;;3;;
14320;SDS011;7244;47.364;8.464;2022-08-03T08:02:01;6;;;3;;
14320;SDS011;7244;47.364;8.464;2022-08-03T08:17:02;6;;;3;;
14320;SDS011;7244;47.364;8.464;2022-08-03T08:32:02;6;;;3;;
14320;SDS011;7244;47.364;8.464;2022-08-03T08:47:02;5;;;3;;
14320;SDS011;7244;47.364;8.464;2022-08-03T09:02:02;6;;;3;;
14320;SDS011;7244;47.364;8.464;2022-08-03T09:17:03;9;;;6;;
14320;SDS011;7244;47.364;8.464;2022-08-03T09:32:02;6;;;3;;
14320;SDS011;7244;47.364;8.464;2022-08-03T09:47:02;7;;;3;;
14320;SDS011;7244;47.364;8.464;2022-08-03T10:02:02;4;;;3;;
14320;SDS011;7244;47.364;8.464;2022-08-03T10:17:02;4;;;3;;
14320;SDS011;7244;47.364;8.464;2022-08-03T10:32:03;6;;;3;;
14320;SDS011;7244;47.364;8.464;2022-08-03T10:47:02;4;;;2;;
14320;SDS011;7244;47.364;8.464;2022-08-03T11:02:02;6;;;3;;
14320;SDS011;7244;47.364;8.464;2022-08-03T11:17:05;5;;;2;;
14320;SDS011;7244;47.364;8.464;2022-08-03T11:32:02;3;;;2;;
14320;SDS011;7244;47.364;8.464;2022-08-03T11:47:02;2;;;1;;
14320;SDS011;7244;47.364;8.464;2022-08-03T11:48:11;2;;;1;;
14320;SDS011;7244;47.364;8.464;2022-08-03T11:49:03;2;;;1;;
14320;SDS011;7244;47.364;8.464;2022-08-03T11:50:02;2;;;1;;
14320;SDS011;7244;47.364;8.464;2022-08-03T11:51:02;2;;;1;;
14320;SDS011;7244;47.364;8.464;2022-08-03T11:52:02;2;;;1;;
14320;SDS011;7244;47.364;8.464;2022-08-03T11:53:02;2;;;1;;
14320;SDS011;7244;47.364;8.464;2022-08-03T11:54:03;2;;;1;;
14320;SDS011;7244;47.364;8.464;2022-08-03T11:55:02;2;;;1;;
14320;SDS011;7244;47.364;8.464;2022-08-03T11:56:02;2;;;1;;
14320;SDS011;7244;47.364;8.464;2022-08-03T11:57:02;2;;;1;;
14320;SDS011;7244;47.364;8.464;2022-08-03T11:58:02;2;;;2;;
14320;SDS011;7244;47.364;8.464;2022-08-03T11:59:01;2;;;2;;
14320;SDS011;7244;47.364;8.464;2022-08-03T12:00:03;2;;;2;;
14320;SDS011;7244;47.364;8.464;2022-08-03T12:01:02;2;;;2;;
14320;SDS011;7244;47.364;8.464;2022-08-03T12:17:01;2;;;2;;
14320;SDS011;7244;47.364;8.464;2022-08-03T12:32:02;2;;;1;;
14320;SDS011;7244;47.364;8.464;2022-08-03T12:47:02;2;;;1;;
14320;SDS011;7244;47.364;8.464;2022-08-03T13:02:03;4;;;1;;
14320;SDS011;7244;47.364;8.464;2022-08-03T13:17:02;1;;;1;;
14320;SDS011;7244;47.364;8.464;2022-08-03T13:32:02;1;;;1;;
14320;SDS011;7244;47.364;8.464;2022-08-03T13:47:01;1;;;1;;
14320;SDS011;7244;47.364;8.464;2022-08-03T14:02:02;1;;;1;;
14320;SDS011;7244;47.364;8.464;2022-08-03T14:17:02;1;;;1;;
14320;SDS011;7244;47.364;8.464;2022-08-03T14:32:02;3;;;1;;
14320;SDS011;7244;47.364;8.464;2022-08-03T14:47:02;1;;;1;;
14320;SDS011;7244;47.364;8.464;2022-08-03T15:02:02;2;;;1;;
14320;SDS011;7244;47.364;8.464;2022-08-03T15:17:02;2;;;1;;
14320;SDS011;7244;47.364;8.464;2022-08-03T15:32:02;2;;;1;;
14320;SDS011;7244;47.364;8.464;2022-08-03T15:47:02;1;;;1;;
14320;SDS011;7244;47.364;8.464;2022-08-03T16:02:02;1;;;1;;
14320;SDS011;7244;47.364;8.464;2022-08-03T16:17:02;1;;;1;;
14320;SDS011;7244;47.364;8.464;2022-08-03T16:32:02;1;;;1;;
14320;SDS011;7244;47.364;8.464;2022-08-03T16:47:02;1;;;1;;
14320;SDS011;7244;47.364;8.464;2022-08-03T17:02:02;2;;;1;;
14320;SDS011;7244;47.364;8.464;2022-08-03T17:17:02;1;;;1;;
14320;SDS011;7244;47.364;8.464;2022-08-03T17:32:03;1;;;1;;
14320;SDS011;7244;47.364;8.464;2022-08-03T17:47:02;2;;;1;;
14320;SDS011;7244;47.364;8.464;2022-08-03T18:02:03;1;;;1;;
14320;SDS011;7244;47.364;8.464;2022-08-03T18:17:04;1;;;1;;
14320;SDS011;7244;47.364;8.464;2022-08-03T18:32:02;1;;;1;;
14320;SDS011;7244;47.364;8.464;2022-08-03T18:47:06;3;;;1;;
14320;SDS011;7244;47.364;8.464;2022-08-03T19:02:04;2;;;1;;
14320;SDS011;7244;47.364;8.464;2022-08-03T19:17:03;2;;;1;;
14320;SDS011;7244;47.364;8.464;2022-08-03T19:32:02;4;;;1;;
14320;SDS011;7244;47.364;8.464;2022-08-03T19:47:05;1;;;1;;
14320;SDS011;7244;47.364;8.464;2022-08-03T20:02:02;2;;;1;;
14320;SDS011;7244;47.364;8.464;2022-08-03T20:17:02;2;;;1;;
14320;SDS011;7244;47.364;8.464;2022-08-03T20:32:02;1;;;1;;
14320;SDS011;7244;47.364;8.464;2022-08-03T20:47:02;1;;;1;;
14320;SDS011;7244;47.364;8.464;2022-08-03T21:02:02;3;;;1;;
14320;SDS011;7244;47.364;8.464;2022-08-03T21:17:02;1;;;1;;
14320;SDS011;7244;47.364;8.464;2022-08-03T21:32:03;2;;;1;;
14320;SDS011;7244;47.364;8.464;2022-08-03T21:47:03;2;;;1;;
14320;SDS011;7244;47.364;8.464;2022-08-03T22:02:02;2;;;1;;
14320;SDS011;7244;47.364;8.464;2022-08-03T22:17:02;2;;;1;;
14320;SDS011;7244;47.364;8.464;2022-08-03T22:32:02;2;;;2;;
14320;SDS011;7244;47.364;8.464;2022-08-03T22:47:02;2;;;2;;
14320;SDS011;7244;47.364;8.464;2022-08-03T23:02:03;3;;;2;;
14320;SDS011;7244;47.364;8.464;2022-08-03T23:17:03;2;;;2;;
14320;SDS011;7244;47.364;8.464;2022-08-03T23:32:02;2;;;2;;
14320;SDS011;7244;47.364;8.464;2022-08-03T23:47:02;2;;;2;;
